sensor_id;sensor_type;location;lat;lon;timestamp;P1;durP1;ratioP1;P2;durP2;ratioP2
66384;SDS011;53426;55.872;37.462;2023-04-24T00:00:21;14.27;;;7.38;;
66384;SDS011;53426;55.872;37.462;2023-04-24T00:02:47;15.95;;;7.40;;
66384;SDS011;53426;55.872;37.462;2023-04-24T00:05:14;13.38;;;6.50;;
66384;SDS011;53426;55.872;37.462;2023-04-24T00:07:41;22.88;;;6.97;;
66384;SDS011;53426;55.872;37.462;2023-04-24T00:10:08;14.32;;;5.93;;
66384;SDS011;53426;55.872;37.462;2023-04-24T00:12:34;20.23;;;7.40;;
66384;SDS011;53426;55.872;37.462;2023-04-24T00:15:00;16.83;;;7.32;;
66384;SDS011;53426;55.872;37.462;2023-04-24T00:17:30;15.60;;;6.60;;
66384;SDS011;53426;55.872;37.462;2023-04-24T00:19:56;13.00;;;7.63;;
66384;SDS011;53426;55.872;37.462;2023-04-24T00:22:27;26.67;;;7.30;;
66384;SDS011;53426;55.872;37.462;2023-04-24T00:24:54;18.27;;;7.90;;
66384;SDS011;53426;55.872;37.462;2023-04-24T00:27:20;10.60;;;7.38;;
66384;SDS011;53426;55.872;37.462;2023-04-24T00:29:48;17.98;;;6.93;;
66384;SDS011;53426;55.872;37.462;2023-04-24T00:32:14;15.43;;;7.55;;
66384;SDS011;53426;55.872;37.462;2023-04-24T00:34:40;21.58;;;7.45;;
66384;SDS011;53426;55.872;37.462;2023-04-24T00:37:06;15.02;;;7.57;;
66384;SDS011;53426;55.872;37.462;2023-04-24T00:39:32;14.95;;;7.55;;
66384;SDS011;53426;55.872;37.462;2023-04-24T00:41:58;15.65;;;7.78;;
66384;SDS011;53426;55.872;37.462;2023-04-24T00:44:25;25.48;;;8.25;;
66384;SDS011;53426;55.872;37.462;2023-04-24T00:46:51;20.63;;;7.40;;
66384;SDS011;53426;55.872;37.462;2023-04-24T00:49:21;20.77;;;8.68;;
66384;SDS011;53426;55.872;37.462;2023-04-24T00:51:48;23.85;;;8.25;;
66384;SDS011;53426;55.872;37.462;2023-04-24T00:54:17;20.75;;;8.55;;
66384;SDS011;53426;55.872;37.462;2023-04-24T00:56:44;19.98;;;8.27;;
66384;SDS011;53426;55.872;37.462;2023-04-24T00:59:11;15.90;;;8.32;;
66384;SDS011;53426;55.872;37.462;2023-04-24T01:01:38;20.00;;;9.10;;
66384;SDS011;53426;55.872;37.462;2023-04-24T01:04:09;18.15;;;8.23;;
66384;SDS011;53426;55.872;37.462;2023-04-24T01:06:37;14.80;;;9.13;;
66384;SDS011;53426;55.872;37.462;2023-04-24T01:09:05;23.15;;;9.02;;
66384;SDS011;53426;55.872;37.462;2023-04-24T01:11:36;14.75;;;8.38;;
66384;SDS011;53426;55.872;37.462;2023-04-24T01:14:04;17.70;;;8.45;;
66384;SDS011;53426;55.872;37.462;2023-04-24T01:16:30;20.60;;;8.98;;
66384;SDS011;53426;55.872;37.462;2023-04-24T01:18:56;21.92;;;9.75;;
66384;SDS011;53426;55.872;37.462;2023-04-24T01:21:22;12.70;;;8.18;;
66384;SDS011;53426;55.872;37.462;2023-04-24T01:23:50;17.50;;;9.30;;
66384;SDS011;53426;55.872;37.462;2023-04-24T01:26:17;16.95;;;9.00;;
66384;SDS011;53426;55.872;37.462;2023-04-24T01:28:45;22.67;;;9.00;;
66384;SDS011;53426;55.872;37.462;2023-04-24T01:31:11;17.42;;;10.18;;
66384;SDS011;53426;55.872;37.462;2023-04-24T01:33:38;30.25;;;10.48;;
66384;SDS011;53426;55.872;37.462;2023-04-24T01:36:04;16.90;;;9.27;;
66384;SDS011;53426;55.872;37.462;2023-04-24T01:38:30;21.23;;;9.82;;
66384;SDS011;53426;55.872;37.462;2023-04-24T01:40:56;15.90;;;9.40;;
66384;SDS011;53426;55.872;37.462;2023-04-24T01:43:24;19.60;;;9.05;;
66384;SDS011;53426;55.872;37.462;2023-04-24T01:45:50;16.50;;;9.27;;
66384;SDS011;53426;55.872;37.462;2023-04-24T01:48:16;11.02;;;8.05;;
66384;SDS011;53426;55.872;37.462;2023-04-24T01:50:42;15.05;;;9.57;;
66384;SDS011;53426;55.872;37.462;2023-04-24T01:53:11;18.35;;;8.98;;
66384;SDS011;53426;55.872;37.462;2023-04-24T01:55:37;15.48;;;9.27;;
66384;SDS011;53426;55.872;37.462;2023-04-24T01:58:04;16.30;;;9.98;;
66384;SDS011;53426;55.872;37.462;2023-04-24T02:00:30;14.38;;;10.68;;
66384;SDS011;53426;55.872;37.462;2023-04-24T02:02:56;15.20;;;9.07;;
66384;SDS011;53426;55.872;37.462;2023-04-24T02:05:22;16.30;;;10.00;;
66384;SDS011;53426;55.872;37.462;2023-04-24T02:07:48;18.63;;;9.98;;
66384;SDS011;53426;55.872;37.462;2023-04-24T02:10:14;19.63;;;10.80;;
66384;SDS011;53426;55.872;37.462;2023-04-24T02:12:45;17.33;;;10.40;;
66384;SDS011;53426;55.872;37.462;2023-04-24T02:15:11;18.80;;;9.35;;
66384;SDS011;53426;55.872;37.462;2023-04-24T02:17:38;21.58;;;9.85;;
66384;SDS011;53426;55.872;37.462;2023-04-24T02:20:04;17.75;;;10.43;;
66384;SDS011;53426;55.872;37.462;2023-04-24T02:22:32;16.15;;;10.68;;
66384;SDS011;53426;55.872;37.462;2023-04-24T02:25:01;19.35;;;10.52;;
66384;SDS011;53426;55.872;37.462;2023-04-24T02:27:32;15.25;;;10.07;;
66384;SDS011;53426;55.872;37.462;2023-04-24T02:29:59;20.90;;;9.90;;
66384;SDS011;53426;55.872;37.462;2023-04-24T02:32:26;16.52;;;9.75;;
66384;SDS011;53426;55.872;37.462;2023-04-24T02:34:52;21.98;;;10.60;;
66384;SDS011;53426;55.872;37.462;2023-04-24T02:37:19;17.42;;;9.55;;
66384;SDS011;53426;55.872;37.462;2023-04-24T02:39:45;17.08;;;10.50;;
66384;SDS011;53426;55.872;37.462;2023-04-24T02:42:10;20.40;;;10.52;;
66384;SDS011;53426;55.872;37.462;2023-04-24T02:44:37;12.02;;;9.65;;
66384;SDS011;53426;55.872;37.462;2023-04-24T02:47:04;19.25;;;10.07;;
66384;SDS011;53426;55.872;37.462;2023-04-24T02:49:30;19.20;;;10.32;;
66384;SDS011;53426;55.872;37.462;2023-04-24T02:51:56;24.90;;;10.00;;
66384;SDS011;53426;55.872;37.462;2023-04-24T02:54:21;20.42;;;9.75;;
66384;SDS011;53426;55.872;37.462;2023-04-24T02:56:47;20.00;;;10.73;;
66384;SDS011;53426;55.872;37.462;2023-04-24T02:59:13;16.27;;;10.63;;
66384;SDS011;53426;55.872;37.462;2023-04-24T03:01:39;16.20;;;9.93;;
66384;SDS011;53426;55.872;37.462;2023-04-24T03:04:05;16.02;;;9.77;;
66384;SDS011;53426;55.872;37.462;2023-04-24T03:06:31;14.15;;;9.27;;
66384;SDS011;53426;55.872;37.462;2023-04-24T03:08:59;18.45;;;9.63;;
66384;SDS011;53426;55.872;37.462;2023-04-24T03:11:25;27.63;;;10.35;;
66384;SDS011;53426;55.872;37.462;2023-04-24T03:13:59;17.15;;;9.70;;
66384;SDS011;53426;55.872;37.462;2023-04-24T03:16:27;14.25;;;9.95;;
66384;SDS011;53426;55.872;37.462;2023-04-24T03:18:56;14.65;;;9.20;;
66384;SDS011;53426;55.872;37.462;2023-04-24T03:21:25;12.75;;;9.57;;
66384;SDS011;53426;55.872;37.462;2023-04-24T03:23:52;22.17;;;9.60;;
66384;SDS011;53426;55.872;37.462;2023-04-24T03:26:18;19.33;;;9.63;;
66384;SDS011;53426;55.872;37.462;2023-04-24T03:28:58;21.90;;;9.65;;
66384;SDS011;53426;55.872;37.462;2023-04-24T03:31:23;23.40;;;10.32;;
66384;SDS011;53426;55.872;37.462;2023-04-24T03:33:50;17.35;;;8.98;;
66384;SDS011;53426;55.872;37.462;2023-04-24T03:36:16;15.35;;;9.30;;
66384;SDS011;53426;55.872;37.462;2023-04-24T03:38:45;22.83;;;10.00;;
66384;SDS011;53426;55.872;37.462;2023-04-24T03:41:29;17.53;;;9.27;;
66384;SDS011;53426;55.872;37.462;2023-04-24T03:44:15;17.45;;;9.88;;
66384;SDS011;53426;55.872;37.462;2023-04-24T03:46:42;17.92;;;10.43;;
66384;SDS011;53426;55.872;37.462;2023-04-24T03:49:08;15.82;;;10.23;;
66384;SDS011;53426;55.872;37.462;2023-04-24T03:51:37;15.32;;;9.32;;
66384;SDS011;53426;55.872;37.462;2023-04-24T03:54:23;25.27;;;9.63;;
66384;SDS011;53426;55.872;37.462;2023-04-24T03:56:51;20.55;;;9.38;;
66384;SDS011;53426;55.872;37.462;2023-04-24T03:59:17;14.40;;;9.18;;
66384;SDS011;53426;55.872;37.462;2023-04-24T04:01:48;18.33;;;9.52;;
66384;SDS011;53426;55.872;37.462;2023-04-24T04:04:16;15.88;;;9.85;;
66384;SDS011;53426;55.872;37.462;2023-04-24T04:06:43;22.60;;;9.98;;
66384;SDS011;53426;55.872;37.462;2023-04-24T04:09:10;14.40;;;8.88;;
66384;SDS011;53426;55.872;37.462;2023-04-24T04:11:36;21.98;;;8.93;;
66384;SDS011;53426;55.872;37.462;2023-04-24T04:14:02;18.55;;;9.85;;
66384;SDS011;53426;55.872;37.462;2023-04-24T04:16:29;22.08;;;9.40;;
66384;SDS011;53426;55.872;37.462;2023-04-24T04:19:01;20.13;;;9.30;;
66384;SDS011;53426;55.872;37.462;2023-04-24T04:21:28;13.95;;;8.73;;
66384;SDS011;53426;55.872;37.462;2023-04-24T04:24:03;18.55;;;10.13;;
66384;SDS011;53426;55.872;37.462;2023-04-24T04:26:35;16.05;;;8.98;;
66384;SDS011;53426;55.872;37.462;2023-04-24T04:29:08;14.23;;;9.35;;
66384;SDS011;53426;55.872;37.462;2023-04-24T04:31:38;14.77;;;9.57;;
66384;SDS011;53426;55.872;37.462;2023-04-24T04:34:09;15.93;;;9.48;;
66384;SDS011;53426;55.872;37.462;2023-04-24T04:36:35;17.83;;;10.02;;
66384;SDS011;53426;55.872;37.462;2023-04-24T04:39:13;18.02;;;9.27;;
66384;SDS011;53426;55.872;37.462;2023-04-24T04:41:50;14.57;;;8.90;;
66384;SDS011;53426;55.872;37.462;2023-04-24T04:44:19;17.38;;;9.82;;
66384;SDS011;53426;55.872;37.462;2023-04-24T04:46:45;15.60;;;10.02;;
66384;SDS011;53426;55.872;37.462;2023-04-24T04:49:22;19.45;;;9.95;;
66384;SDS011;53426;55.872;37.462;2023-04-24T04:51:50;23.40;;;11.25;;
66384;SDS011;53426;55.872;37.462;2023-04-24T04:54:17;13.18;;;9.48;;
66384;SDS011;53426;55.872;37.462;2023-04-24T04:56:43;14.38;;;10.05;;
66384;SDS011;53426;55.872;37.462;2023-04-24T04:59:08;13.68;;;9.65;;
66384;SDS011;53426;55.872;37.462;2023-04-24T05:01:37;17.30;;;9.32;;
66384;SDS011;53426;55.872;37.462;2023-04-24T05:04:05;24.70;;;9.20;;
66384;SDS011;53426;55.872;37.462;2023-04-24T05:06:31;27.70;;;10.57;;
66384;SDS011;53426;55.872;37.462;2023-04-24T05:08:57;18.25;;;10.02;;
66384;SDS011;53426;55.872;37.462;2023-04-24T05:11:44;14.57;;;9.15;;
66384;SDS011;53426;55.872;37.462;2023-04-24T05:14:10;22.70;;;10.65;;
66384;SDS011;53426;55.872;37.462;2023-04-24T05:16:39;20.27;;;9.45;;
66384;SDS011;53426;55.872;37.462;2023-04-24T05:19:08;13.88;;;9.00;;
66384;SDS011;53426;55.872;37.462;2023-04-24T05:21:38;17.02;;;9.60;;
66384;SDS011;53426;55.872;37.462;2023-04-24T05:24:06;20.95;;;9.68;;
66384;SDS011;53426;55.872;37.462;2023-04-24T05:26:48;16.00;;;9.63;;
66384;SDS011;53426;55.872;37.462;2023-04-24T05:29:17;13.90;;;8.98;;
66384;SDS011;53426;55.872;37.462;2023-04-24T05:31:44;21.50;;;10.00;;
66384;SDS011;53426;55.872;37.462;2023-04-24T05:34:11;26.15;;;9.60;;
66384;SDS011;53426;55.872;37.462;2023-04-24T05:36:41;24.00;;;10.25;;
66384;SDS011;53426;55.872;37.462;2023-04-24T05:39:09;19.15;;;8.98;;
66384;SDS011;53426;55.872;37.462;2023-04-24T05:41:35;21.73;;;8.85;;
66384;SDS011;53426;55.872;37.462;2023-04-24T05:44:01;25.05;;;9.52;;
66384;SDS011;53426;55.872;37.462;2023-04-24T05:46:26;24.65;;;8.63;;
66384;SDS011;53426;55.872;37.462;2023-04-24T05:48:54;20.88;;;8.70;;
66384;SDS011;53426;55.872;37.462;2023-04-24T05:51:20;18.45;;;9.18;;
66384;SDS011;53426;55.872;37.462;2023-04-24T05:53:46;24.30;;;9.38;;
66384;SDS011;53426;55.872;37.462;2023-04-24T05:56:12;23.33;;;9.15;;
66384;SDS011;53426;55.872;37.462;2023-04-24T05:58:38;17.40;;;8.57;;
66384;SDS011;53426;55.872;37.462;2023-04-24T06:01:04;28.38;;;10.02;;
66384;SDS011;53426;55.872;37.462;2023-04-24T06:03:31;23.35;;;8.93;;
66384;SDS011;53426;55.872;37.462;2023-04-24T06:05:58;22.10;;;8.45;;
66384;SDS011;53426;55.872;37.462;2023-04-24T06:08:24;26.20;;;8.30;;
66384;SDS011;53426;55.872;37.462;2023-04-24T06:10:51;12.68;;;7.55;;
66384;SDS011;53426;55.872;37.462;2023-04-24T06:13:24;12.38;;;7.07;;
66384;SDS011;53426;55.872;37.462;2023-04-24T06:16:10;12.05;;;7.55;;
66384;SDS011;53426;55.872;37.462;2023-04-24T06:18:39;21.17;;;6.72;;
66384;SDS011;53426;55.872;37.462;2023-04-24T06:21:05;17.38;;;6.90;;
66384;SDS011;53426;55.872;37.462;2023-04-24T06:23:32;13.57;;;6.25;;
66384;SDS011;53426;55.872;37.462;2023-04-24T06:25:58;12.23;;;6.72;;
66384;SDS011;53426;55.872;37.462;2023-04-24T06:28:25;14.10;;;6.15;;
66384;SDS011;53426;55.872;37.462;2023-04-24T06:30:52;11.52;;;5.50;;
66384;SDS011;53426;55.872;37.462;2023-04-24T06:33:20;12.15;;;5.78;;
66384;SDS011;53426;55.872;37.462;2023-04-24T06:35:46;17.98;;;6.40;;
66384;SDS011;53426;55.872;37.462;2023-04-24T06:38:12;21.80;;;7.05;;
66384;SDS011;53426;55.872;37.462;2023-04-24T06:40:38;24.38;;;7.15;;
66384;SDS011;53426;55.872;37.462;2023-04-24T06:43:04;17.98;;;6.88;;
66384;SDS011;53426;55.872;37.462;2023-04-24T06:45:31;25.90;;;7.70;;
66384;SDS011;53426;55.872;37.462;2023-04-24T06:48:06;16.95;;;6.90;;
66384;SDS011;53426;55.872;37.462;2023-04-24T06:50:35;11.13;;;7.18;;
66384;SDS011;53426;55.872;37.462;2023-04-24T06:53:02;25.88;;;7.25;;
66384;SDS011;53426;55.872;37.462;2023-04-24T06:55:28;24.27;;;8.07;;
66384;SDS011;53426;55.872;37.462;2023-04-24T06:57:55;27.27;;;7.95;;
66384;SDS011;53426;55.872;37.462;2023-04-24T07:00:21;17.23;;;6.85;;
66384;SDS011;53426;55.872;37.462;2023-04-24T07:02:49;15.40;;;6.68;;
66384;SDS011;53426;55.872;37.462;2023-04-24T07:05:15;13.40;;;6.78;;
66384;SDS011;53426;55.872;37.462;2023-04-24T07:07:41;14.93;;;7.10;;
66384;SDS011;53426;55.872;37.462;2023-04-24T07:10:08;12.68;;;6.93;;
66384;SDS011;53426;55.872;37.462;2023-04-24T07:12:34;19.17;;;7.07;;
66384;SDS011;53426;55.872;37.462;2023-04-24T07:15:01;17.95;;;6.35;;
66384;SDS011;53426;55.872;37.462;2023-04-24T07:17:30;23.58;;;6.57;;
66384;SDS011;53426;55.872;37.462;2023-04-24T07:19:56;23.55;;;6.72;;
66384;SDS011;53426;55.872;37.462;2023-04-24T07:22:21;20.90;;;6.38;;
66384;SDS011;53426;55.872;37.462;2023-04-24T07:24:49;16.92;;;5.65;;
66384;SDS011;53426;55.872;37.462;2023-04-24T07:27:23;12.35;;;5.28;;
66384;SDS011;53426;55.872;37.462;2023-04-24T07:29:50;10.32;;;4.72;;
66384;SDS011;53426;55.872;37.462;2023-04-24T07:32:17;15.82;;;5.50;;
66384;SDS011;53426;55.872;37.462;2023-04-24T07:34:42;16.17;;;4.95;;
66384;SDS011;53426;55.872;37.462;2023-04-24T07:37:09;12.80;;;5.20;;
66384;SDS011;53426;55.872;37.462;2023-04-24T07:39:35;19.73;;;5.10;;
66384;SDS011;53426;55.872;37.462;2023-04-24T07:42:01;30.65;;;6.25;;
66384;SDS011;53426;55.872;37.462;2023-04-24T07:44:27;11.77;;;5.40;;
66384;SDS011;53426;55.872;37.462;2023-04-24T07:46:53;12.23;;;4.90;;
66384;SDS011;53426;55.872;37.462;2023-04-24T07:49:21;15.80;;;5.75;;
66384;SDS011;53426;55.872;37.462;2023-04-24T07:51:47;10.60;;;4.75;;
66384;SDS011;53426;55.872;37.462;2023-04-24T07:54:13;14.60;;;5.07;;
66384;SDS011;53426;55.872;37.462;2023-04-24T07:56:38;12.50;;;4.45;;
66384;SDS011;53426;55.872;37.462;2023-04-24T07:59:07;11.82;;;4.90;;
66384;SDS011;53426;55.872;37.462;2023-04-24T08:01:33;17.45;;;5.43;;
66384;SDS011;53426;55.872;37.462;2023-04-24T08:03:58;19.15;;;5.38;;
66384;SDS011;53426;55.872;37.462;2023-04-24T08:06:25;11.88;;;4.88;;
66384;SDS011;53426;55.872;37.462;2023-04-24T08:08:59;8.65;;;4.68;;
66384;SDS011;53426;55.872;37.462;2023-04-24T08:11:26;5.60;;;4.63;;
66384;SDS011;53426;55.872;37.462;2023-04-24T08:13:52;14.18;;;4.97;;
66384;SDS011;53426;55.872;37.462;2023-04-24T08:16:18;8.10;;;4.85;;
66384;SDS011;53426;55.872;37.462;2023-04-24T08:18:44;7.53;;;5.45;;
66384;SDS011;53426;55.872;37.462;2023-04-24T08:21:09;5.80;;;4.80;;
66384;SDS011;53426;55.872;37.462;2023-04-24T08:23:36;9.88;;;5.05;;
66384;SDS011;53426;55.872;37.462;2023-04-24T08:26:02;8.93;;;5.55;;
66384;SDS011;53426;55.872;37.462;2023-04-24T08:28:35;7.18;;;4.90;;
66384;SDS011;53426;55.872;37.462;2023-04-24T08:31:01;20.85;;;5.82;;
66384;SDS011;53426;55.872;37.462;2023-04-24T08:33:27;6.30;;;4.47;;
66384;SDS011;53426;55.872;37.462;2023-04-24T08:36:02;18.83;;;4.90;;
66384;SDS011;53426;55.872;37.462;2023-04-24T08:38:30;7.93;;;5.10;;
66384;SDS011;53426;55.872;37.462;2023-04-24T08:41:00;5.97;;;5.00;;
66384;SDS011;53426;55.872;37.462;2023-04-24T08:43:29;7.03;;;4.82;;
66384;SDS011;53426;55.872;37.462;2023-04-24T08:45:58;12.00;;;4.72;;
66384;SDS011;53426;55.872;37.462;2023-04-24T08:48:25;6.20;;;4.40;;
66384;SDS011;53426;55.872;37.462;2023-04-24T08:50:52;8.10;;;4.40;;
66384;SDS011;53426;55.872;37.462;2023-04-24T08:53:18;7.82;;;4.50;;
66384;SDS011;53426;55.872;37.462;2023-04-24T08:55:47;12.38;;;4.80;;
66384;SDS011;53426;55.872;37.462;2023-04-24T08:58:14;8.68;;;6.07;;
66384;SDS011;53426;55.872;37.462;2023-04-24T09:00:42;8.40;;;4.53;;
66384;SDS011;53426;55.872;37.462;2023-04-24T09:03:13;10.50;;;4.32;;
66384;SDS011;53426;55.872;37.462;2023-04-24T09:05:44;9.35;;;4.00;;
66384;SDS011;53426;55.872;37.462;2023-04-24T09:08:13;13.73;;;4.90;;
66384;SDS011;53426;55.872;37.462;2023-04-24T09:10:40;6.65;;;4.60;;
66384;SDS011;53426;55.872;37.462;2023-04-24T09:13:07;6.18;;;4.35;;
66384;SDS011;53426;55.872;37.462;2023-04-24T09:15:38;7.07;;;3.92;;
66384;SDS011;53426;55.872;37.462;2023-04-24T09:18:04;4.25;;;3.85;;
66384;SDS011;53426;55.872;37.462;2023-04-24T09:20:32;6.90;;;4.50;;
66384;SDS011;53426;55.872;37.462;2023-04-24T09:23:00;5.82;;;4.70;;
66384;SDS011;53426;55.872;37.462;2023-04-24T09:25:36;9.18;;;5.47;;
66384;SDS011;53426;55.872;37.462;2023-04-24T09:28:02;9.90;;;4.72;;
66384;SDS011;53426;55.872;37.462;2023-04-24T09:30:29;8.35;;;4.47;;
66384;SDS011;53426;55.872;37.462;2023-04-24T09:33:14;7.88;;;4.18;;
66384;SDS011;53426;55.872;37.462;2023-04-24T09:39:20;10.25;;;4.75;;
66384;SDS011;53426;55.872;37.462;2023-04-24T09:41:50;5.93;;;4.00;;
66384;SDS011;53426;55.872;37.462;2023-04-24T09:44:25;8.70;;;4.20;;
66384;SDS011;53426;55.872;37.462;2023-04-24T09:46:57;11.02;;;4.85;;
66384;SDS011;53426;55.872;37.462;2023-04-24T09:49:30;10.75;;;4.63;;
66384;SDS011;53426;55.872;37.462;2023-04-24T09:52:05;4.55;;;3.88;;
66384;SDS011;53426;55.872;37.462;2023-04-24T09:54:36;8.55;;;4.88;;
66384;SDS011;53426;55.872;37.462;2023-04-24T09:57:05;7.32;;;4.32;;
66384;SDS011;53426;55.872;37.462;2023-04-24T09:59:35;11.30;;;4.80;;
66384;SDS011;53426;55.872;37.462;2023-04-24T10:02:16;8.13;;;4.65;;
66384;SDS011;53426;55.872;37.462;2023-04-24T10:04:58;4.82;;;4.35;;
66384;SDS011;53426;55.872;37.462;2023-04-24T10:07:26;10.18;;;5.15;;
66384;SDS011;53426;55.872;37.462;2023-04-24T10:10:01;9.85;;;5.35;;
66384;SDS011;53426;55.872;37.462;2023-04-24T10:12:31;9.65;;;4.40;;
66384;SDS011;53426;55.872;37.462;2023-04-24T10:14:57;6.63;;;4.15;;
66384;SDS011;53426;55.872;37.462;2023-04-24T10:17:31;9.53;;;4.13;;
66384;SDS011;53426;55.872;37.462;2023-04-24T10:19:59;5.25;;;4.57;;
66384;SDS011;53426;55.872;37.462;2023-04-24T10:22:30;8.30;;;4.05;;
66384;SDS011;53426;55.872;37.462;2023-04-24T10:24:58;4.13;;;3.72;;
66384;SDS011;53426;55.872;37.462;2023-04-24T10:27:25;5.00;;;3.80;;
66384;SDS011;53426;55.872;37.462;2023-04-24T10:29:54;10.52;;;4.20;;
66384;SDS011;53426;55.872;37.462;2023-04-24T10:32:22;7.40;;;3.92;;
66384;SDS011;53426;55.872;37.462;2023-04-24T10:34:49;9.68;;;4.45;;
66384;SDS011;53426;55.872;37.462;2023-04-24T10:37:15;4.22;;;3.72;;
66384;SDS011;53426;55.872;37.462;2023-04-24T10:39:41;12.18;;;4.28;;
66384;SDS011;53426;55.872;37.462;2023-04-24T10:42:16;9.43;;;4.03;;
66384;SDS011;53426;55.872;37.462;2023-04-24T10:44:42;11.35;;;4.05;;
66384;SDS011;53426;55.872;37.462;2023-04-24T10:47:14;14.02;;;4.05;;
66384;SDS011;53426;55.872;37.462;2023-04-24T10:49:40;7.82;;;4.43;;
66384;SDS011;53426;55.872;37.462;2023-04-24T10:52:08;8.77;;;4.30;;
66384;SDS011;53426;55.872;37.462;2023-04-24T10:54:35;8.73;;;4.70;;
66384;SDS011;53426;55.872;37.462;2023-04-24T10:59:50;11.52;;;4.65;;
66384;SDS011;53426;55.872;37.462;2023-04-24T11:02:39;10.65;;;4.43;;
66384;SDS011;53426;55.872;37.462;2023-04-24T11:05:09;11.85;;;4.95;;
66384;SDS011;53426;55.872;37.462;2023-04-24T11:20:33;11.35;;;4.10;;
66384;SDS011;53426;55.872;37.462;2023-04-24T11:23:05;10.27;;;5.10;;
66384;SDS011;53426;55.872;37.462;2023-04-24T11:28:46;12.10;;;4.80;;
66384;SDS011;53426;55.872;37.462;2023-04-24T11:34:08;5.93;;;4.80;;
66384;SDS011;53426;55.872;37.462;2023-04-24T11:36:35;10.90;;;5.20;;
66384;SDS011;53426;55.872;37.462;2023-04-24T11:39:02;8.60;;;4.72;;
66384;SDS011;53426;55.872;37.462;2023-04-24T11:41:28;8.70;;;4.93;;
66384;SDS011;53426;55.872;37.462;2023-04-24T11:43:55;8.23;;;4.47;;
66384;SDS011;53426;55.872;37.462;2023-04-24T11:46:21;12.40;;;4.57;;
66384;SDS011;53426;55.872;37.462;2023-04-24T11:48:48;9.55;;;3.88;;
66384;SDS011;53426;55.872;37.462;2023-04-24T11:51:32;16.67;;;5.00;;
66384;SDS011;53426;55.872;37.462;2023-04-24T11:53:58;16.13;;;4.40;;
66384;SDS011;53426;55.872;37.462;2023-04-24T11:56:24;7.53;;;4.10;;
66384;SDS011;53426;55.872;37.462;2023-04-24T11:58:54;4.50;;;4.10;;
66384;SDS011;53426;55.872;37.462;2023-04-24T12:01:23;7.05;;;4.25;;
66384;SDS011;53426;55.872;37.462;2023-04-24T12:03:50;14.98;;;4.60;;
66384;SDS011;53426;55.872;37.462;2023-04-24T12:06:25;10.45;;;4.38;;
66384;SDS011;53426;55.872;37.462;2023-04-24T12:08:52;9.35;;;4.72;;
66384;SDS011;53426;55.872;37.462;2023-04-24T12:11:20;6.25;;;4.25;;
66384;SDS011;53426;55.872;37.462;2023-04-24T12:13:46;5.55;;;4.50;;
66384;SDS011;53426;55.872;37.462;2023-04-24T12:16:12;4.35;;;3.95;;
66384;SDS011;53426;55.872;37.462;2023-04-24T12:18:42;4.80;;;4.20;;
66384;SDS011;53426;55.872;37.462;2023-04-24T12:21:16;5.90;;;4.20;;
66384;SDS011;53426;55.872;37.462;2023-04-24T12:23:46;10.38;;;4.90;;
66384;SDS011;53426;55.872;37.462;2023-04-24T12:26:15;5.50;;;4.47;;
66384;SDS011;53426;55.872;37.462;2023-04-24T12:28:45;13.52;;;4.32;;
66384;SDS011;53426;55.872;37.462;2023-04-24T12:31:13;7.95;;;4.45;;
66384;SDS011;53426;55.872;37.462;2023-04-24T12:33:39;12.13;;;4.30;;
66384;SDS011;53426;55.872;37.462;2023-04-24T12:36:05;6.00;;;3.75;;
66384;SDS011;53426;55.872;37.462;2023-04-24T12:38:31;9.25;;;4.50;;
66384;SDS011;53426;55.872;37.462;2023-04-24T12:41:06;8.02;;;4.05;;
66384;SDS011;53426;55.872;37.462;2023-04-24T12:43:33;7.95;;;4.15;;
66384;SDS011;53426;55.872;37.462;2023-04-24T12:45:59;12.60;;;4.50;;
66384;SDS011;53426;55.872;37.462;2023-04-24T12:48:26;6.32;;;4.25;;
66384;SDS011;53426;55.872;37.462;2023-04-24T12:50:52;6.30;;;4.00;;
66384;SDS011;53426;55.872;37.462;2023-04-24T12:53:19;6.95;;;4.15;;
66384;SDS011;53426;55.872;37.462;2023-04-24T12:55:45;5.15;;;3.90;;
66384;SDS011;53426;55.872;37.462;2023-04-24T12:58:12;7.88;;;4.18;;
66384;SDS011;53426;55.872;37.462;2023-04-24T13:00:38;9.20;;;4.30;;
66384;SDS011;53426;55.872;37.462;2023-04-24T13:03:04;7.60;;;3.92;;
66384;SDS011;53426;55.872;37.462;2023-04-24T13:05:33;7.38;;;4.07;;
66384;SDS011;53426;55.872;37.462;2023-04-24T13:07:59;20.52;;;5.00;;
66384;SDS011;53426;55.872;37.462;2023-04-24T13:10:25;9.95;;;4.20;;
66384;SDS011;53426;55.872;37.462;2023-04-24T13:12:51;7.85;;;4.05;;
66384;SDS011;53426;55.872;37.462;2023-04-24T13:15:20;7.85;;;4.47;;
66384;SDS011;53426;55.872;37.462;2023-04-24T13:17:46;6.28;;;4.38;;
66384;SDS011;53426;55.872;37.462;2023-04-24T13:20:14;4.57;;;3.92;;
66384;SDS011;53426;55.872;37.462;2023-04-24T13:22:40;9.60;;;4.45;;
66384;SDS011;53426;55.872;37.462;2023-04-24T13:25:09;8.07;;;4.53;;
66384;SDS011;53426;55.872;37.462;2023-04-24T13:27:35;10.10;;;4.65;;
66384;SDS011;53426;55.872;37.462;2023-04-24T13:30:03;8.75;;;4.18;;
66384;SDS011;53426;55.872;37.462;2023-04-24T13:32:31;9.43;;;4.13;;
66384;SDS011;53426;55.872;37.462;2023-04-24T13:34:58;11.85;;;4.45;;
66384;SDS011;53426;55.872;37.462;2023-04-24T13:37:25;11.60;;;4.28;;
66384;SDS011;53426;55.872;37.462;2023-04-24T13:39:51;7.03;;;3.88;;
66384;SDS011;53426;55.872;37.462;2023-04-24T13:42:19;5.15;;;3.88;;
66384;SDS011;53426;55.872;37.462;2023-04-24T13:44:45;6.65;;;4.30;;
66384;SDS011;53426;55.872;37.462;2023-04-24T13:47:11;4.93;;;3.97;;
66384;SDS011;53426;55.872;37.462;2023-04-24T13:49:37;8.50;;;4.43;;
66384;SDS011;53426;55.872;37.462;2023-04-24T13:52:03;7.22;;;3.40;;
66384;SDS011;53426;55.872;37.462;2023-04-24T13:54:29;10.43;;;4.13;;
66384;SDS011;53426;55.872;37.462;2023-04-24T13:56:57;15.20;;;4.45;;
66384;SDS011;53426;55.872;37.462;2023-04-24T13:59:23;3.78;;;3.40;;
66384;SDS011;53426;55.872;37.462;2023-04-24T14:01:49;13.32;;;4.20;;
66384;SDS011;53426;55.872;37.462;2023-04-24T14:04:15;7.38;;;3.78;;
66384;SDS011;53426;55.872;37.462;2023-04-24T14:06:41;7.70;;;3.97;;
66384;SDS011;53426;55.872;37.462;2023-04-24T14:09:07;6.18;;;4.30;;
66384;SDS011;53426;55.872;37.462;2023-04-24T14:11:33;10.40;;;4.22;;
66384;SDS011;53426;55.872;37.462;2023-04-24T14:14:00;9.00;;;4.47;;
66384;SDS011;53426;55.872;37.462;2023-04-24T14:16:26;7.40;;;3.90;;
66384;SDS011;53426;55.872;37.462;2023-04-24T14:18:52;12.98;;;5.13;;
66384;SDS011;53426;55.872;37.462;2023-04-24T14:21:17;15.13;;;4.20;;
66384;SDS011;53426;55.872;37.462;2023-04-24T14:23:43;8.40;;;3.72;;
66384;SDS011;53426;55.872;37.462;2023-04-24T14:26:10;18.15;;;4.03;;
66384;SDS011;53426;55.872;37.462;2023-04-24T14:28:36;17.35;;;4.10;;
66384;SDS011;53426;55.872;37.462;2023-04-24T14:31:02;5.18;;;3.70;;
66384;SDS011;53426;55.872;37.462;2023-04-24T14:33:28;7.03;;;4.10;;
66384;SDS011;53426;55.872;37.462;2023-04-24T14:35:54;6.30;;;4.00;;
66384;SDS011;53426;55.872;37.462;2023-04-24T14:38:20;7.43;;;3.70;;
66384;SDS011;53426;55.872;37.462;2023-04-24T14:40:47;6.45;;;4.28;;
66384;SDS011;53426;55.872;37.462;2023-04-24T14:43:13;8.73;;;3.75;;
66384;SDS011;53426;55.872;37.462;2023-04-24T14:45:39;6.35;;;3.78;;
66384;SDS011;53426;55.872;37.462;2023-04-24T14:48:07;5.90;;;4.13;;
66384;SDS011;53426;55.872;37.462;2023-04-24T14:50:34;3.90;;;3.60;;
66384;SDS011;53426;55.872;37.462;2023-04-24T14:53:00;11.60;;;3.97;;